Donna Nook, United Kingdom
Current Conditions -  °F | °C
As of 2:50 AM on Sunday 26 Oct 2014 (Local Time) from EGXS Reporting Station
Scattered Clouds Scattered Clouds  
Wind Chill: 11°   Ceiling: Unl
Heat Index: 11°   Visibility: 6mi
Dew Point:   Wind: 18mph
Humidity: 82%   Direction: 190°S
Pressure: 30"   Gusts: NA
Location:  53.47°N, 0.15°E
Report Text: EGXS 260150Z AUTO 19016KT 9999 // SCT040/// 11/08 Q1016
Loading
Personal Weather Stations






























Interactive Weather Map
Tropical Storm Tracking
New forecast layout! Learn more

10-Day Weather Forecast

Advertisements
Track Severe Weather on mobile